sensor_id;sensor_type;location;lat;lon;timestamp;temperature;humidity
65034;DHT22;51601;51.356;12.458;2023-09-18T00:02:30;20.90;68.40
65034;DHT22;51601;51.356;12.458;2023-09-18T00:06:50;20.80;68.70
65034;DHT22;51601;51.356;12.458;2023-09-18T00:11:08;20.80;69.20
65034;DHT22;51601;51.356;12.458;2023-09-18T00:15:26;20.70;69.60
65034;DHT22;51601;51.356;12.458;2023-09-18T00:19:46;20.60;70.00
65034;DHT22;51601;51.356;12.458;2023-09-18T00:24:06;20.60;70.60
65034;DHT22;51601;51.356;12.458;2023-09-18T00:28:23;20.50;71.00
65034;DHT22;51601;51.356;12.458;2023-09-18T00:32:41;20.50;71.30
65034;DHT22;51601;51.356;12.458;2023-09-18T00:37:01;20.50;71.70
65034;DHT22;51601;51.356;12.458;2023-09-18T00:41:20;20.40;71.80
65034;DHT22;51601;51.356;12.458;2023-09-18T00:45:41;20.40;71.90
65034;DHT22;51601;51.356;12.458;2023-09-18T00:50:00;20.40;72.20
65034;DHT22;51601;51.356;12.458;2023-09-18T00:54:19;20.30;72.40
65034;DHT22;51601;51.356;12.458;2023-09-18T00:58:39;20.30;72.80
65034;DHT22;51601;51.356;12.458;2023-09-18T01:02:57;20.20;73.20
65034;DHT22;51601;51.356;12.458;2023-09-18T01:07:15;20.20;73.60
65034;DHT22;51601;51.356;12.458;2023-09-18T01:11:43;20.20;73.70
65034;DHT22;51601;51.356;12.458;2023-09-18T01:16:08;20.20;74.10
65034;DHT22;51601;51.356;12.458;2023-09-18T01:20:28;20.10;74.40
65034;DHT22;51601;51.356;12.458;2023-09-18T01:24:47;20.00;74.60
65034;DHT22;51601;51.356;12.458;2023-09-18T01:29:07;20.00;74.80
65034;DHT22;51601;51.356;12.458;2023-09-18T01:33:26;20.00;75.40
65034;DHT22;51601;51.356;12.458;2023-09-18T01:37:46;19.90;75.60
65034;DHT22;51601;51.356;12.458;2023-09-18T01:42:06;19.90;76.40
65034;DHT22;51601;51.356;12.458;2023-09-18T01:46:25;19.80;77.30
65034;DHT22;51601;51.356;12.458;2023-09-18T01:50:43;19.70;78.00
65034;DHT22;51601;51.356;12.458;2023-09-18T01:55:01;19.60;79.00
65034;DHT22;51601;51.356;12.458;2023-09-18T01:59:22;19.50;79.80
65034;DHT22;51601;51.356;12.458;2023-09-18T02:03:40;19.50;80.90
65034;DHT22;51601;51.356;12.458;2023-09-18T02:08:21;19.30;81.80
65034;DHT22;51601;51.356;12.458;2023-09-18T02:12:38;19.30;83.00
65034;DHT22;51601;51.356;12.458;2023-09-18T02:16:57;19.20;83.90
65034;DHT22;51601;51.356;12.458;2023-09-18T02:21:19;19.10;84.90
65034;DHT22;51601;51.356;12.458;2023-09-18T02:25:38;19.10;85.60
65034;DHT22;51601;51.356;12.458;2023-09-18T02:29:56;19.00;86.20
65034;DHT22;51601;51.356;12.458;2023-09-18T02:34:16;19.00;86.70
65034;DHT22;51601;51.356;12.458;2023-09-18T02:38:36;19.00;87.10
65034;DHT22;51601;51.356;12.458;2023-09-18T02:42:53;19.00;87.60
65034;DHT22;51601;51.356;12.458;2023-09-18T02:47:12;18.90;88.00
65034;DHT22;51601;51.356;12.458;2023-09-18T02:51:31;18.90;88.00
65034;DHT22;51601;51.356;12.458;2023-09-18T02:55:52;18.80;88.60
65034;DHT22;51601;51.356;12.458;2023-09-18T03:00:10;18.80;89.00
65034;DHT22;51601;51.356;12.458;2023-09-18T03:04:27;18.70;89.40
65034;DHT22;51601;51.356;12.458;2023-09-18T03:08:49;18.70;90.30
65034;DHT22;51601;51.356;12.458;2023-09-18T03:13:10;18.60;90.10
65034;DHT22;51601;51.356;12.458;2023-09-18T03:17:30;18.60;90.20
65034;DHT22;51601;51.356;12.458;2023-09-18T03:21:48;18.50;90.50
65034;DHT22;51601;51.356;12.458;2023-09-18T03:26:08;18.50;90.80
65034;DHT22;51601;51.356;12.458;2023-09-18T03:30:27;18.50;91.30
65034;DHT22;51601;51.356;12.458;2023-09-18T03:34:46;18.40;91.50
65034;DHT22;51601;51.356;12.458;2023-09-18T03:39:06;18.40;91.80
65034;DHT22;51601;51.356;12.458;2023-09-18T03:43:26;18.30;92.10
65034;DHT22;51601;51.356;12.458;2023-09-18T03:47:46;18.30;92.20
65034;DHT22;51601;51.356;12.458;2023-09-18T03:52:07;18.30;92.60
65034;DHT22;51601;51.356;12.458;2023-09-18T03:56:25;18.20;92.80
65034;DHT22;51601;51.356;12.458;2023-09-18T04:00:44;18.20;92.80
65034;DHT22;51601;51.356;12.458;2023-09-18T04:05:05;18.10;93.10
65034;DHT22;51601;51.356;12.458;2023-09-18T04:09:25;18.10;93.40
65034;DHT22;51601;51.356;12.458;2023-09-18T04:13:43;18.00;94.10
65034;DHT22;51601;51.356;12.458;2023-09-18T04:18:06;18.00;94.10
65034;DHT22;51601;51.356;12.458;2023-09-18T04:22:26;18.00;94.40
65034;DHT22;51601;51.356;12.458;2023-09-18T04:26:44;18.00;94.50
65034;DHT22;51601;51.356;12.458;2023-09-18T04:31:02;17.90;94.60
65034;DHT22;51601;51.356;12.458;2023-09-18T04:35:24;17.90;94.90
65034;DHT22;51601;51.356;12.458;2023-09-18T04:39:44;17.80;95.20
65034;DHT22;51601;51.356;12.458;2023-09-18T04:44:05;17.80;95.40
65034;DHT22;51601;51.356;12.458;2023-09-18T04:48:26;17.80;95.50
65034;DHT22;51601;51.356;12.458;2023-09-18T04:52:46;17.80;95.40
65034;DHT22;51601;51.356;12.458;2023-09-18T04:57:05;17.80;95.40
65034;DHT22;51601;51.356;12.458;2023-09-18T05:01:23;17.80;95.40
65034;DHT22;51601;51.356;12.458;2023-09-18T05:05:42;17.80;95.50
65034;DHT22;51601;51.356;12.458;2023-09-18T05:10:01;17.90;95.60
65034;DHT22;51601;51.356;12.458;2023-09-18T05:14:21;18.10;95.20
65034;DHT22;51601;51.356;12.458;2023-09-18T05:18:39;18.20;94.20
65034;DHT22;51601;51.356;12.458;2023-09-18T05:22:58;18.30;93.40
65034;DHT22;51601;51.356;12.458;2023-09-18T05:27:20;18.50;92.80
65034;DHT22;51601;51.356;12.458;2023-09-18T05:31:42;18.60;92.10
65034;DHT22;51601;51.356;12.458;2023-09-18T05:36:00;18.70;91.40
65034;DHT22;51601;51.356;12.458;2023-09-18T05:40:18;18.70;91.00
65034;DHT22;51601;51.356;12.458;2023-09-18T05:44:38;18.90;90.70
65034;DHT22;51601;51.356;12.458;2023-09-18T05:48:57;19.00;90.40
65034;DHT22;51601;51.356;12.458;2023-09-18T05:53:18;19.10;90.40
65034;DHT22;51601;51.356;12.458;2023-09-18T05:57:37;19.30;89.40
65034;DHT22;51601;51.356;12.458;2023-09-18T06:01:59;19.40;87.80
65034;DHT22;51601;51.356;12.458;2023-09-18T06:06:19;19.50;86.90
65034;DHT22;51601;51.356;12.458;2023-09-18T06:10:37;19.60;86.30
65034;DHT22;51601;51.356;12.458;2023-09-18T06:14:55;19.80;86.90
65034;DHT22;51601;51.356;12.458;2023-09-18T06:19:16;20.30;87.30
65034;DHT22;51601;51.356;12.458;2023-09-18T06:23:34;21.20;81.10
65034;DHT22;51601;51.356;12.458;2023-09-18T06:27:52;21.90;75.50
65034;DHT22;51601;51.356;12.458;2023-09-18T06:32:10;22.40;71.80
65034;DHT22;51601;51.356;12.458;2023-09-18T06:36:30;22.80;69.50
65034;DHT22;51601;51.356;12.458;2023-09-18T06:40:50;23.30;67.50
65034;DHT22;51601;51.356;12.458;2023-09-18T06:45:11;24.10;66.50
65034;DHT22;51601;51.356;12.458;2023-09-18T06:49:29;25.00;61.50
65034;DHT22;51601;51.356;12.458;2023-09-18T06:53:48;25.80;59.50
65034;DHT22;51601;51.356;12.458;2023-09-18T06:58:08;26.50;56.50
65034;DHT22;51601;51.356;12.458;2023-09-18T07:02:26;26.90;54.70
65034;DHT22;51601;51.356;12.458;2023-09-18T07:06:44;27.20;53.50
65034;DHT22;51601;51.356;12.458;2023-09-18T07:11:03;27.20;53.40
65034;DHT22;51601;51.356;12.458;2023-09-18T07:15:23;27.40;53.50
65034;DHT22;51601;51.356;12.458;2023-09-18T07:19:41;27.60;52.80
65034;DHT22;51601;51.356;12.458;2023-09-18T07:23:59;27.60;52.00
65034;DHT22;51601;51.356;12.458;2023-09-18T07:28:19;27.30;52.00
65034;DHT22;51601;51.356;12.458;2023-09-18T07:32:40;26.70;53.10
65034;DHT22;51601;51.356;12.458;2023-09-18T07:36:59;26.30;54.30
65034;DHT22;51601;51.356;12.458;2023-09-18T07:41:18;26.00;55.30
65034;DHT22;51601;51.356;12.458;2023-09-18T07:45:40;26.20;56.40
65034;DHT22;51601;51.356;12.458;2023-09-18T07:50:00;26.80;56.10
65034;DHT22;51601;51.356;12.458;2023-09-18T07:54:18;27.50;53.90
65034;DHT22;51601;51.356;12.458;2023-09-18T07:58:37;28.10;52.80
65034;DHT22;51601;51.356;12.458;2023-09-18T08:02:56;28.50;51.50
65034;DHT22;51601;51.356;12.458;2023-09-18T08:07:19;28.40;50.30
65034;DHT22;51601;51.356;12.458;2023-09-18T08:11:36;27.90;50.70
65034;DHT22;51601;51.356;12.458;2023-09-18T08:16:06;27.30;51.30
65034;DHT22;51601;51.356;12.458;2023-09-18T08:20:27;26.70;52.30
65034;DHT22;51601;51.356;12.458;2023-09-18T08:24:46;26.20;53.60
65034;DHT22;51601;51.356;12.458;2023-09-18T08:29:04;25.90;53.90
65034;DHT22;51601;51.356;12.458;2023-09-18T08:33:22;25.70;54.60
65034;DHT22;51601;51.356;12.458;2023-09-18T08:37:42;25.40;55.10
65034;DHT22;51601;51.356;12.458;2023-09-18T08:42:04;25.20;55.60
65034;DHT22;51601;51.356;12.458;2023-09-18T08:46:22;25.20;56.00
65034;DHT22;51601;51.356;12.458;2023-09-18T08:50:40;25.20;56.20
65034;DHT22;51601;51.356;12.458;2023-09-18T08:55:03;25.00;56.10
65034;DHT22;51601;51.356;12.458;2023-09-18T08:59:27;24.90;56.70
65034;DHT22;51601;51.356;12.458;2023-09-18T09:03:47;25.00;56.80
65034;DHT22;51601;51.356;12.458;2023-09-18T09:08:05;25.20;56.20
65034;DHT22;51601;51.356;12.458;2023-09-18T09:12:52;25.60;55.70
65034;DHT22;51601;51.356;12.458;2023-09-18T09:17:18;26.20;54.60
65034;DHT22;51601;51.356;12.458;2023-09-18T09:21:39;26.50;53.40
65034;DHT22;51601;51.356;12.458;2023-09-18T09:26:13;26.50;53.60
65034;DHT22;51601;51.356;12.458;2023-09-18T09:30:33;26.40;53.80
65034;DHT22;51601;51.356;12.458;2023-09-18T09:34:57;26.20;54.10
65034;DHT22;51601;51.356;12.458;2023-09-18T09:39:16;26.00;54.60
65034;DHT22;51601;51.356;12.458;2023-09-18T09:43:34;25.70;55.00
65034;DHT22;51601;51.356;12.458;2023-09-18T09:47:55;25.60;55.80
65034;DHT22;51601;51.356;12.458;2023-09-18T09:52:18;25.50;56.50
65034;DHT22;51601;51.356;12.458;2023-09-18T09:56:42;25.40;56.90
65034;DHT22;51601;51.356;12.458;2023-09-18T10:01:05;25.40;57.10
65034;DHT22;51601;51.356;12.458;2023-09-18T10:05:32;25.50;57.40
65034;DHT22;51601;51.356;12.458;2023-09-18T10:09:53;25.70;57.70
65034;DHT22;51601;51.356;12.458;2023-09-18T10:14:14;26.00;57.30
65034;DHT22;51601;51.356;12.458;2023-09-18T10:18:41;26.40;56.30
65034;DHT22;51601;51.356;12.458;2023-09-18T10:23:04;26.70;55.10
65034;DHT22;51601;51.356;12.458;2023-09-18T10:27:23;26.70;54.50
65034;DHT22;51601;51.356;12.458;2023-09-18T10:31:45;26.60;54.40
65034;DHT22;51601;51.356;12.458;2023-09-18T10:36:07;26.50;54.60
65034;DHT22;51601;51.356;12.458;2023-09-18T10:40:28;26.30;54.90
65034;DHT22;51601;51.356;12.458;2023-09-18T10:44:48;26.20;55.30
65034;DHT22;51601;51.356;12.458;2023-09-18T10:49:06;26.30;55.70
65034;DHT22;51601;51.356;12.458;2023-09-18T10:53:26;26.50;56.50
65034;DHT22;51601;51.356;12.458;2023-09-18T10:58:01;27.40;56.60
65034;DHT22;51601;51.356;12.458;2023-09-18T11:02:31;28.90;53.80
65034;DHT22;51601;51.356;12.458;2023-09-18T11:07:01;30.30;50.70
65034;DHT22;51601;51.356;12.458;2023-09-18T11:11:22;31.10;48.60
65034;DHT22;51601;51.356;12.458;2023-09-18T11:15:45;31.30;47.20
65034;DHT22;51601;51.356;12.458;2023-09-18T11:20:09;30.90;46.30
65034;DHT22;51601;51.356;12.458;2023-09-18T11:24:29;30.40;47.20
65034;DHT22;51601;51.356;12.458;2023-09-18T11:28:52;29.90;48.00
65034;DHT22;51601;51.356;12.458;2023-09-18T11:33:30;29.30;49.00
65034;DHT22;51601;51.356;12.458;2023-09-18T11:38:03;29.00;50.10
65034;DHT22;51601;51.356;12.458;2023-09-18T11:42:23;29.00;50.60
65034;DHT22;51601;51.356;12.458;2023-09-18T11:46:46;29.00;50.80
65034;DHT22;51601;51.356;12.458;2023-09-18T11:51:05;29.00;51.30
65034;DHT22;51601;51.356;12.458;2023-09-18T11:55:27;29.00;51.50
65034;DHT22;51601;51.356;12.458;2023-09-18T11:59:46;28.90;50.80
65034;DHT22;51601;51.356;12.458;2023-09-18T12:04:04;28.70;50.80
65034;DHT22;51601;51.356;12.458;2023-09-18T12:08:28;28.40;51.30
65034;DHT22;51601;51.356;12.458;2023-09-18T12:12:49;28.10;52.40
65034;DHT22;51601;51.356;12.458;2023-09-18T12:17:07;27.70;53.60
65034;DHT22;51601;51.356;12.458;2023-09-18T12:21:25;27.40;55.00
65034;DHT22;51601;51.356;12.458;2023-09-18T12:25:50;27.00;56.00
65034;DHT22;51601;51.356;12.458;2023-09-18T12:30:08;26.70;56.90
65034;DHT22;51601;51.356;12.458;2023-09-18T12:34:25;26.50;57.90
65034;DHT22;51601;51.356;12.458;2023-09-18T12:38:43;26.30;58.90
65034;DHT22;51601;51.356;12.458;2023-09-18T12:43:03;26.10;60.00
65034;DHT22;51601;51.356;12.458;2023-09-18T12:47:23;25.90;61.30
65034;DHT22;51601;51.356;12.458;2023-09-18T12:51:43;25.60;62.00
65034;DHT22;51601;51.356;12.458;2023-09-18T12:56:06;25.40;62.90
65034;DHT22;51601;51.356;12.458;2023-09-18T13:00:24;25.40;63.80
65034;DHT22;51601;51.356;12.458;2023-09-18T13:04:51;25.30;64.30
65034;DHT22;51601;51.356;12.458;2023-09-18T13:09:18;25.40;64.50
65034;DHT22;51601;51.356;12.458;2023-09-18T13:13:38;25.40;64.50
65034;DHT22;51601;51.356;12.458;2023-09-18T13:17:59;25.30;64.50
65034;DHT22;51601;51.356;12.458;2023-09-18T13:22:23;25.20;64.10
65034;DHT22;51601;51.356;12.458;2023-09-18T13:26:42;25.00;64.20
65034;DHT22;51601;51.356;12.458;2023-09-18T13:31:00;25.00;64.20
65034;DHT22;51601;51.356;12.458;2023-09-18T13:35:23;24.90;64.30
65034;DHT22;51601;51.356;12.458;2023-09-18T13:39:42;24.80;64.90
65034;DHT22;51601;51.356;12.458;2023-09-18T13:44:04;24.70;65.50
65034;DHT22;51601;51.356;12.458;2023-09-18T13:48:24;24.60;66.00
65034;DHT22;51601;51.356;12.458;2023-09-18T13:52:44;24.40;66.50
65034;DHT22;51601;51.356;12.458;2023-09-18T13:57:00;24.40;66.70
65034;DHT22;51601;51.356;12.458;2023-09-18T14:01:23;24.40;66.50
65034;DHT22;51601;51.356;12.458;2023-09-18T14:05:43;24.40;66.20
65034;DHT22;51601;51.356;12.458;2023-09-18T14:10:04;24.40;66.00
65034;DHT22;51601;51.356;12.458;2023-09-18T14:14:25;24.30;66.10
65034;DHT22;51601;51.356;12.458;2023-09-18T14:18:43;24.30;66.20
65034;DHT22;51601;51.356;12.458;2023-09-18T14:23:01;24.20;66.50
65034;DHT22;51601;51.356;12.458;2023-09-18T14:27:20;24.10;67.40
65034;DHT22;51601;51.356;12.458;2023-09-18T14:31:37;23.90;68.50
65034;DHT22;51601;51.356;12.458;2023-09-18T14:35:55;23.80;69.70
65034;DHT22;51601;51.356;12.458;2023-09-18T14:40:13;23.60;71.20
65034;DHT22;51601;51.356;12.458;2023-09-18T14:44:33;23.50;73.50
65034;DHT22;51601;51.356;12.458;2023-09-18T14:48:53;23.40;75.20
65034;DHT22;51601;51.356;12.458;2023-09-18T14:53:10;23.30;76.40
65034;DHT22;51601;51.356;12.458;2023-09-18T14:57:29;23.20;77.50
65034;DHT22;51601;51.356;12.458;2023-09-18T15:01:48;23.10;79.30
65034;DHT22;51601;51.356;12.458;2023-09-18T15:06:05;23.00;81.70
65034;DHT22;51601;51.356;12.458;2023-09-18T15:10:23;22.80;83.40
65034;DHT22;51601;51.356;12.458;2023-09-18T15:14:41;22.60;85.90
65034;DHT22;51601;51.356;12.458;2023-09-18T15:19:00;22.50;88.30
65034;DHT22;51601;51.356;12.458;2023-09-18T15:23:24;22.50;90.00
65034;DHT22;51601;51.356;12.458;2023-09-18T15:27:41;22.40;90.50
65034;DHT22;51601;51.356;12.458;2023-09-18T15:31:59;22.40;91.20
65034;DHT22;51601;51.356;12.458;2023-09-18T15:36:25;22.40;91.90
65034;DHT22;51601;51.356;12.458;2023-09-18T15:40:42;22.40;92.20
65034;DHT22;51601;51.356;12.458;2023-09-18T15:44:59;22.40;92.40
65034;DHT22;51601;51.356;12.458;2023-09-18T15:49:18;22.40;92.70
65034;DHT22;51601;51.356;12.458;2023-09-18T15:53:37;22.40;92.90
65034;DHT22;51601;51.356;12.458;2023-09-18T15:57:57;22.40;93.00
65034;DHT22;51601;51.356;12.458;2023-09-18T16:02:15;22.40;92.90
65034;DHT22;51601;51.356;12.458;2023-09-18T16:06:33;22.40;92.70
65034;DHT22;51601;51.356;12.458;2023-09-18T16:10:53;22.30;92.70
65034;DHT22;51601;51.356;12.458;2023-09-18T16:15:12;22.30;92.60
65034;DHT22;51601;51.356;12.458;2023-09-18T16:19:30;22.20;92.30
65034;DHT22;51601;51.356;12.458;2023-09-18T16:23:48;22.10;92.10
65034;DHT22;51601;51.356;12.458;2023-09-18T16:28:08;22.10;91.80
65034;DHT22;51601;51.356;12.458;2023-09-18T16:32:29;22.10;91.70
65034;DHT22;51601;51.356;12.458;2023-09-18T16:36:45;22.00;91.60
65034;DHT22;51601;51.356;12.458;2023-09-18T16:41:03;22.00;91.50
65034;DHT22;51601;51.356;12.458;2023-09-18T16:45:26;22.00;91.20
65034;DHT22;51601;51.356;12.458;2023-09-18T16:49:46;21.90;90.90
65034;DHT22;51601;51.356;12.458;2023-09-18T16:54:04;21.90;90.70
65034;DHT22;51601;51.356;12.458;2023-09-18T16:58:31;21.80;90.40
65034;DHT22;51601;51.356;12.458;2023-09-18T17:02:50;21.80;90.00
65034;DHT22;51601;51.356;12.458;2023-09-18T17:07:07;21.70;89.60
65034;DHT22;51601;51.356;12.458;2023-09-18T17:11:25;21.70;89.90
65034;DHT22;51601;51.356;12.458;2023-09-18T17:15:43;21.70;90.30
65034;DHT22;51601;51.356;12.458;2023-09-18T17:20:03;21.60;90.80
65034;DHT22;51601;51.356;12.458;2023-09-18T17:24:23;21.50;91.60
65034;DHT22;51601;51.356;12.458;2023-09-18T17:28:40;21.40;92.80
65034;DHT22;51601;51.356;12.458;2023-09-18T17:32:59;21.30;93.40
65034;DHT22;51601;51.356;12.458;2023-09-18T17:37:20;21.30;93.90
65034;DHT22;51601;51.356;12.458;2023-09-18T17:41:41;21.20;94.40
65034;DHT22;51601;51.356;12.458;2023-09-18T17:45:59;21.10;94.70
65034;DHT22;51601;51.356;12.458;2023-09-18T17:50:17;21.10;95.00
65034;DHT22;51601;51.356;12.458;2023-09-18T17:54:37;21.00;95.40
65034;DHT22;51601;51.356;12.458;2023-09-18T17:58:56;21.00;95.80
65034;DHT22;51601;51.356;12.458;2023-09-18T18:03:14;21.00;96.00
65034;DHT22;51601;51.356;12.458;2023-09-18T18:07:35;20.90;96.10
65034;DHT22;51601;51.356;12.458;2023-09-18T18:11:58;20.90;96.10
65034;DHT22;51601;51.356;12.458;2023-09-18T18:16:17;20.90;96.10
65034;DHT22;51601;51.356;12.458;2023-09-18T18:20:42;20.80;96.20
65034;DHT22;51601;51.356;12.458;2023-09-18T18:25:00;20.80;96.30
65034;DHT22;51601;51.356;12.458;2023-09-18T18:29:20;20.70;96.30
65034;DHT22;51601;51.356;12.458;2023-09-18T18:33:39;20.70;96.50
65034;DHT22;51601;51.356;12.458;2023-09-18T18:37:57;20.60;96.40
65034;DHT22;51601;51.356;12.458;2023-09-18T18:42:15;20.50;96.70
65034;DHT22;51601;51.356;12.458;2023-09-18T18:46:34;20.40;97.10
65034;DHT22;51601;51.356;12.458;2023-09-18T18:50:51;20.40;97.60
65034;DHT22;51601;51.356;12.458;2023-09-18T18:55:09;20.30;97.70
65034;DHT22;51601;51.356;12.458;2023-09-18T18:59:27;20.30;97.80
65034;DHT22;51601;51.356;12.458;2023-09-18T19:03:47;20.20;98.00
65034;DHT22;51601;51.356;12.458;2023-09-18T19:08:04;20.20;98.40
65034;DHT22;51601;51.356;12.458;2023-09-18T19:12:24;20.10;98.70
65034;DHT22;51601;51.356;12.458;2023-09-18T19:16:43;20.10;98.90
65034;DHT22;51601;51.356;12.458;2023-09-18T19:21:02;20.10;99.20
65034;DHT22;51601;51.356;12.458;2023-09-18T19:25:25;20.10;99.40
65034;DHT22;51601;51.356;12.458;2023-09-18T19:29:43;20.10;99.40
65034;DHT22;51601;51.356;12.458;2023-09-18T19:34:06;20.00;99.60
65034;DHT22;51601;51.356;12.458;2023-09-18T19:38:26;20.00;99.60
65034;DHT22;51601;51.356;12.458;2023-09-18T19:42:44;20.00;99.60
65034;DHT22;51601;51.356;12.458;2023-09-18T19:47:05;20.00;99.60
65034;DHT22;51601;51.356;12.458;2023-09-18T19:51:26;19.90;99.80
65034;DHT22;51601;51.356;12.458;2023-09-18T19:55:45;19.90;99.80
65034;DHT22;51601;51.356;12.458;2023-09-18T20:00:02;19.80;99.80
65034;DHT22;51601;51.356;12.458;2023-09-18T20:04:29;19.70;99.90
65034;DHT22;51601;51.356;12.458;2023-09-18T20:08:47;19.70;99.90
65034;DHT22;51601;51.356;12.458;2023-09-18T20:13:06;19.70;99.90
65034;DHT22;51601;51.356;12.458;2023-09-18T20:17:26;19.60;99.90
65034;DHT22;51601;51.356;12.458;2023-09-18T20:21:44;19.60;99.90
65034;DHT22;51601;51.356;12.458;2023-09-18T20:26:02;19.50;99.90
65034;DHT22;51601;51.356;12.458;2023-09-18T20:30:22;19.50;99.90
65034;DHT22;51601;51.356;12.458;2023-09-18T20:34:41;19.50;99.90
65034;DHT22;51601;51.356;12.458;2023-09-18T20:39:03;19.40;99.90
65034;DHT22;51601;51.356;12.458;2023-09-18T20:43:20;19.30;99.90
65034;DHT22;51601;51.356;12.458;2023-09-18T20:47:43;19.30;99.90
65034;DHT22;51601;51.356;12.458;2023-09-18T20:52:03;19.20;99.90
65034;DHT22;51601;51.356;12.458;2023-09-18T20:56:21;19.20;99.90
65034;DHT22;51601;51.356;12.458;2023-09-18T21:00:39;19.10;99.90
65034;DHT22;51601;51.356;12.458;2023-09-18T21:04:59;19.10;99.90
65034;DHT22;51601;51.356;12.458;2023-09-18T21:09:18;19.10;99.90
65034;DHT22;51601;51.356;12.458;2023-09-18T21:13:36;19.00;99.90
65034;DHT22;51601;51.356;12.458;2023-09-18T21:17:54;19.00;99.90
65034;DHT22;51601;51.356;12.458;2023-09-18T21:22:14;18.90;99.90
65034;DHT22;51601;51.356;12.458;2023-09-18T21:26:34;18.90;99.90
65034;DHT22;51601;51.356;12.458;2023-09-18T21:30:54;18.90;99.90
65034;DHT22;51601;51.356;12.458;2023-09-18T21:35:13;18.80;99.90
65034;DHT22;51601;51.356;12.458;2023-09-18T21:39:32;18.80;99.90
65034;DHT22;51601;51.356;12.458;2023-09-18T21:43:52;18.80;99.90
65034;DHT22;51601;51.356;12.458;2023-09-18T21:48:10;18.70;99.90
65034;DHT22;51601;51.356;12.458;2023-09-18T21:52:28;18.80;99.90
65034;DHT22;51601;51.356;12.458;2023-09-18T21:56:47;18.80;99.90
65034;DHT22;51601;51.356;12.458;2023-09-18T22:01:07;18.80;99.90
65034;DHT22;51601;51.356;12.458;2023-09-18T22:05:25;18.80;99.90
65034;DHT22;51601;51.356;12.458;2023-09-18T22:09:43;18.80;99.90
65034;DHT22;51601;51.356;12.458;2023-09-18T22:14:09;18.80;99.90
65034;DHT22;51601;51.356;12.458;2023-09-18T22:18:28;18.70;99.90
65034;DHT22;51601;51.356;12.458;2023-09-18T22:22:47;18.70;99.90
65034;DHT22;51601;51.356;12.458;2023-09-18T22:27:04;18.70;99.90
65034;DHT22;51601;51.356;12.458;2023-09-18T22:31:24;18.60;99.90
65034;DHT22;51601;51.356;12.458;2023-09-18T22:35:41;18.60;99.90
65034;DHT22;51601;51.356;12.458;2023-09-18T22:58:29;18.40;99.90
65034;DHT22;51601;51.356;12.458;2023-09-18T23:02:49;18.40;99.90
65034;DHT22;51601;51.356;12.458;2023-09-18T23:07:07;18.40;99.90
65034;DHT22;51601;51.356;12.458;2023-09-18T23:11:26;18.40;99.90
65034;DHT22;51601;51.356;12.458;2023-09-18T23:15:47;18.50;99.90
65034;DHT22;51601;51.356;12.458;2023-09-18T23:20:07;18.50;99.90
65034;DHT22;51601;51.356;12.458;2023-09-18T23:24:29;18.50;99.90
65034;DHT22;51601;51.356;12.458;2023-09-18T23:28:46;18.50;99.90
65034;DHT22;51601;51.356;12.458;2023-09-18T23:33:06;18.60;99.90
65034;DHT22;51601;51.356;12.458;2023-09-18T23:37:26;18.50;99.90
65034;DHT22;51601;51.356;12.458;2023-09-18T23:41:47;18.50;99.90
65034;DHT22;51601;51.356;12.458;2023-09-18T23:46:08;18.50;99.90
65034;DHT22;51601;51.356;12.458;2023-09-18T23:50:30;18.60;99.90
65034;DHT22;51601;51.356;12.458;2023-09-18T23:54:47;18.70;99.90
65034;DHT22;51601;51.356;12.458;2023-09-18T23:59:05;18.70;99.90
